Time;durP1;ratioP1;P1;durP2;ratioP2;P2;SDS_P1;SDS_P2;PMS_P1;PMS_P2;Temp;Humidity;BMP_temperature;BMP_pressure;BME280_temperature;BME280_humidity;BME280_pressure;Samples;Min_cycle;Max_cycle;Signal;HPM_P1;HPM_P2
2023/10/28 00:01:59;;;;;;;;;;;;;;;8.63;100.00;99516.13;5009617;28;20228;-70
2023/10/28 00:04:24;;;;;;;;;;;;;;;8.64;100.00;99515.97;5014048;28;19921;-69
2023/10/28 00:06:49;;;;;;;;;;;;;;;8.66;100.00;99518.53;5017396;28;20881;-70
2023/10/28 00:09:15;;;;;;;;;;;;;;;8.65;100.00;99520.34;5017750;28;20023;-70
2023/10/28 00:11:40;;;;;;;;;;;;;;;8.60;100.00;99519.94;5014452;28;19932;-70
2023/10/28 00:14:05;;;;;;;;;;;;;;;8.64;100.00;99521.31;5009719;28;19967;-70
2023/10/28 00:16:31;;;;;;;;;;;;;;;8.61;100.00;99515.41;5011092;28;19971;-70
2023/10/28 00:18:56;;;;;;;;;;;;;;;8.61;100.00;99520.75;5012938;28;19964;-70
2023/10/28 00:21:21;;;;;;;;;;;;;;;8.65;100.00;99517.66;5013938;28;20455;-70
2023/10/28 00:23:46;;;;;;;;;;;;;;;8.64;100.00;99521.31;5014421;28;20421;-70
2023/10/28 00:26:12;;;;;;;;;;;;;;;8.65;100.00;99523.00;5015832;28;19987;-70
2023/10/28 00:28:37;;;;;;;;;;;;;;;8.65;100.00;99528.38;5014705;28;20835;-70
2023/10/28 00:31:03;;;;;;;;;;;;;;;8.64;100.00;99531.19;5007078;28;20008;-73
2023/10/28 00:33:29;;;;;;;;;;;;;;;8.67;100.00;99531.75;5009737;28;19924;-70
2023/10/28 00:35:54;;;;;;;;;;;;;;;8.68;100.00;99522.75;5012404;28;20034;-71
2023/10/28 00:38:20;;;;;;;;;;;;;;;8.67;100.00;99529.06;5008775;28;20971;-71
2023/10/28 00:40:45;;;;;;;;;;;;;;;8.67;100.00;99526.41;5012674;28;20094;-70
2023/10/28 00:43:10;;;;;;;;;;;;;;;8.69;100.00;99529.78;5003953;28;19932;-70
2023/10/28 00:45:36;;;;;;;;;;;;;;;8.70;100.00;99539.50;5009931;28;19985;-72
2023/10/28 00:48:01;;;;;;;;;;;;;;;8.79;100.00;99521.75;5010311;28;20269;-71
2023/10/28 00:50:29;;;;;;;;;;;;;;;8.83;100.00;99527.69;5009817;28;19927;-71
2023/10/28 00:52:55;;;;;;;;;;;;;;;8.84;100.00;99532.06;5022075;28;20035;-72
2023/10/28 00:55:22;;;;;;;;;;;;;;;8.84;100.00;99535.56;5010812;28;19960;-69
2023/10/28 00:57:47;;;;;;;;;;;;;;;8.86;100.00;99532.78;5012244;28;20355;-71
2023/10/28 01:00:14;;;;;;;;;;;;;;;8.88;100.00;99527.25;5006147;28;20519;-70
2023/10/28 01:02:40;;;;;;;;;;;;;;;8.96;100.00;99527.41;5002869;28;19921;-71
2023/10/28 01:05:06;;;;;;;;;;;;;;;8.94;100.00;99524.03;5000325;28;20351;-72
2023/10/28 01:07:34;;;;;;;;;;;;;;;8.97;100.00;99526.44;5009898;28;19943;-70
2023/10/28 01:10:00;;;;;;;;;;;;;;;9.06;100.00;99527.41;5013455;28;20008;-70
2023/10/28 01:12:26;;;;;;;;;;;;;;;9.04;100.00;99530.19;4994770;28;19920;-73
2023/10/28 01:14:51;;;;;;;;;;;;;;;9.08;100.00;99525.44;5008560;28;19935;-70
2023/10/28 01:17:17;;;;;;;;;;;;;;;9.07;100.00;99529.91;5008747;28;19921;-70
2023/10/28 01:19:42;;;;;;;;;;;;;;;8.95;100.00;99507.81;5010075;28;19917;-72
2023/10/28 01:22:07;;;;;;;;;;;;;;;9.05;100.00;99526.53;5009980;28;19956;-74
2023/10/28 01:24:34;;;;;;;;;;;;;;;9.08;100.00;99525.44;5013172;28;19928;-71
2023/10/28 01:27:00;;;;;;;;;;;;;;;9.08;100.00;99522.75;5016601;28;20205;-71
2023/10/28 01:29:25;;;;;;;;;;;;;;;9.10;100.00;99515.44;5014124;28;20411;-72
2023/10/28 01:31:50;;;;;;;;;;;;;;;9.10;100.00;99521.59;5014505;28;20114;-71
2023/10/28 01:34:15;;;;;;;;;;;;;;;9.06;100.00;99512.16;5008359;28;19976;-71
2023/10/28 01:36:43;;;;;;;;;;;;;;;9.07;100.00;99516.53;5015484;28;20028;-71
2023/10/28 01:39:08;;;;;;;;;;;;;;;9.10;100.00;99515.44;5013182;28;19946;-70
2023/10/28 01:41:33;;;;;;;;;;;;;;;9.15;100.00;99523.84;5014050;28;19920;-70
2023/10/28 01:43:59;;;;;;;;;;;;;;;9.12;100.00;99518.81;5015955;28;19909;-71
2023/10/28 01:46:24;;;;;;;;;;;;;;;9.13;100.00;99523.19;5012645;28;20460;-71
2023/10/28 01:48:49;;;;;;;;;;;;;;;9.12;100.00;99526.84;5023285;28;20450;-71
2023/10/28 01:51:14;;;;;;;;;;;;;;;9.16;100.00;99520.19;5013603;28;19921;-70
2023/10/28 01:53:39;;;;;;;;;;;;;;;9.15;100.00;99527.38;5015290;28;19976;-71
2023/10/28 01:56:05;;;;;;;;;;;;;;;9.19;100.00;99527.94;5012205;28;20973;-72
2023/10/28 01:58:32;;;;;;;;;;;;;;;9.14;100.00;99523.03;5015350;28;20282;-71
2023/10/28 02:00:57;;;;;;;;;;;;;;;9.14;100.00;99520.34;5017374;28;19925;-70
2023/10/28 02:03:23;;;;;;;;;;;;;;;9.25;100.00;99523.88;5017763;28;20172;-70
2023/10/28 02:05:48;;;;;;;;;;;;;;;9.17;100.00;99519.19;5015757;28;19927;-70
2023/10/28 02:08:13;;;;;;;;;;;;;;;9.21;100.00;99517.94;5017042;28;19928;-71
2023/10/28 02:10:39;;;;;;;;;;;;;;;9.20;100.00;99516.25;5014188;28;19927;-70
2023/10/28 02:13:04;;;;;;;;;;;;;;;9.25;100.00;99519.34;5014860;28;19917;-70
2023/10/28 02:15:30;;;;;;;;;;;;;;;9.26;100.00;99522.88;5015998;28;19929;-71
2023/10/28 02:17:55;;;;;;;;;;;;;;;9.17;100.00;99521.03;5016491;28;20040;-71
2023/10/28 02:20:20;;;;;;;;;;;;;;;9.18;100.00;99522.75;5018241;28;19929;-70
2023/10/28 02:22:45;;;;;;;;;;;;;;;9.24;100.00;99527.53;5015864;28;19968;-71
2023/10/28 02:25:11;;;;;;;;;;;;;;;9.22;100.00;99513.44;5016220;28;20052;-70
2023/10/28 02:27:37;;;;;;;;;;;;;;;9.22;100.00;99518.78;5017892;28;19975;-70
2023/10/28 02:30:04;;;;;;;;;;;;;;;9.21;100.00;99520.59;5017611;28;19925;-71
2023/10/28 02:32:29;;;;;;;;;;;;;;;9.25;100.00;99522.00;5017596;28;19934;-71
2023/10/28 02:34:54;;;;;;;;;;;;;;;9.23;100.00;99521.31;5012628;28;20291;-70
2023/10/28 02:37:19;;;;;;;;;;;;;;;9.15;100.00;99519.34;5018291;28;21448;-73
2023/10/28 02:39:45;;;;;;;;;;;;;;;9.23;100.00;99524.00;5017999;28;20299;-72
2023/10/28 02:42:10;;;;;;;;;;;;;;;9.20;100.00;99520.75;5010236;28;19936;-70
2023/10/28 02:44:36;;;;;;;;;;;;;;;9.21;100.00;99517.09;5016994;28;19921;-71
2023/10/28 02:47:01;;;;;;;;;;;;;;;9.20;100.00;99518.09;5018446;28;19996;-71
2023/10/28 02:49:27;;;;;;;;;;;;;;;9.23;100.00;99512.44;5018562;28;19944;-72
2023/10/28 02:51:52;;;;;;;;;;;;;;;9.19;100.00;99514.53;5015362;28;19924;-70
2023/10/28 02:54:17;;;;;;;;;;;;;;;9.19;100.00;99511.88;5018094;28;19983;-71
2023/10/28 02:56:43;;;;;;;;;;;;;;;9.14;100.00;99508.78;5012520;28;19980;-70
2023/10/28 02:59:09;;;;;;;;;;;;;;;9.14;100.00;99514.13;5018061;28;20338;-72
2023/10/28 03:01:36;;;;;;;;;;;;;;;9.15;100.00;99518.50;5000556;28;19921;-71
2023/10/28 03:04:02;;;;;;;;;;;;;;;9.12;100.00;99514.28;5017721;28;20036;-70
2023/10/28 03:06:28;;;;;;;;;;;;;;;9.11;100.00;99520.63;5017639;28;19925;-71
2023/10/28 03:08:54;;;;;;;;;;;;;;;9.08;100.00;99525.44;5014242;28;20276;-70
2023/10/28 03:11:19;;;;;;;;;;;;;;;9.06;100.00;99528.22;5000030;28;20390;-71
2023/10/28 03:13:44;;;;;;;;;;;;;;;9.10;100.00;99520.78;5027176;28;19917;-71
2023/10/28 03:16:09;;;;;;;;;;;;;;;9.14;100.00;99524.84;5013601;28;19971;-70
2023/10/28 03:18:34;;;;;;;;;;;;;;;9.12;100.00;99518.81;5015625;28;19964;-72
2023/10/28 03:21:00;;;;;;;;;;;;;;;9.14;100.00;99522.16;5016448;28;20038;-72
2023/10/28 03:23:25;;;;;;;;;;;;;;;9.16;100.00;99530.91;5024214;28;19967;-70
2023/10/28 03:25:50;;;;;;;;;;;;;;;9.14;100.00;99517.66;5014283;28;20521;-70
2023/10/28 03:28:15;;;;;;;;;;;;;;;9.12;100.00;99524.16;5011483;28;20383;-70
2023/10/28 03:30:40;;;;;;;;;;;;;;;9.11;100.00;99517.13;5013939;28;20484;-71
2023/10/28 03:33:06;;;;;;;;;;;;;;;9.14;100.00;99517.66;5002884;28;19989;-70
2023/10/28 03:35:32;;;;;;;;;;;;;;;9.11;100.00;99517.94;5029933;28;19925;-70
2023/10/28 03:37:57;;;;;;;;;;;;;;;9.14;100.00;99519.47;5000192;28;19948;-71
2023/10/28 03:40:22;;;;;;;;;;;;;;;9.14;100.00;99516.81;5017698;28;19972;-72
2023/10/28 03:42:47;;;;;;;;;;;;;;;9.17;100.00;99513.00;5009918;28;19932;-73
2023/10/28 03:45:14;;;;;;;;;;;;;;;9.21;100.00;99514.41;5014282;28;20516;-70
2023/10/28 03:47:39;;;;;;;;;;;;;;;9.11;100.00;99515.28;5010309;28;20407;-73
2023/10/28 03:50:05;;;;;;;;;;;;;;;9.12;100.00;99521.47;4998592;28;19925;-73
2023/10/28 03:52:30;;;;;;;;;;;;;;;9.13;100.00;99515.97;5011005;28;19960;-74
2023/10/28 03:54:55;;;;;;;;;;;;;;;9.14;100.00;99531.06;5016576;28;19964;-74
2023/10/28 03:57:21;;;;;;;;;;;;;;;9.14;100.00;99520.34;5013389;28;20358;-72
2023/10/28 03:59:48;;;;;;;;;;;;;;;9.16;100.00;99517.50;5015148;28;20276;-70
2023/10/28 04:02:13;;;;;;;;;;;;;;;9.14;100.00;99516.81;5011045;28;19921;-72
2023/10/28 04:04:38;;;;;;;;;;;;;;;9.14;100.00;99516.81;5006323;28;19924;-71
2023/10/28 04:07:04;;;;;;;;;;;;;;;8.93;100.00;99498.25;5010247;28;20287;-72
2023/10/28 04:09:29;;;;;;;;;;;;;;;9.05;100.00;99515.81;4997459;28;19925;-71
2023/10/28 04:11:54;;;;;;;;;;;;;;;9.04;100.00;99510.63;5011738;28;20377;-70
2023/10/28 04:14:19;;;;;;;;;;;;;;;9.01;100.00;99509.06;5013308;28;21053;-72
2023/10/28 04:16:45;;;;;;;;;;;;;;;8.99;100.00;99506.53;5009790;28;20281;-74
2023/10/28 04:19:10;;;;;;;;;;;;;;;8.92;100.00;99513.44;4994130;28;19921;-72
2023/10/28 04:21:35;;;;;;;;;;;;;;;8.89;100.00;99510.22;5012448;28;19929;-72
2023/10/28 04:24:01;;;;;;;;;;;;;;;8.90;100.00;99504.72;5008642;28;19927;-72
2023/10/28 04:26:26;;;;;;;;;;;;;;;8.83;100.00;99512.47;5012577;28;19927;-71
2023/10/28 04:28:51;;;;;;;;;;;;;;;8.84;100.00;99516.00;5011076;28;19921;-71
2023/10/28 04:31:16;;;;;;;;;;;;;;;8.82;100.00;99500.06;5011131;28;19968;-71
2023/10/28 04:33:42;;;;;;;;;;;;;;;8.89;100.00;99504.88;5020548;28;19991;-71
2023/10/28 04:36:10;;;;;;;;;;;;;;;8.93;100.00;99498.25;4997195;28;20015;-70
2023/10/28 04:38:40;;;;;;;;;;;;;;;8.83;100.00;99503.59;4997492;28;20376;-72
2023/10/28 04:41:05;;;;;;;;;;;;;;;8.88;100.00;99500.50;5013875;28;19921;-70
2023/10/28 04:43:30;;;;;;;;;;;;;;;8.70;100.00;99469.94;5011347;28;19992;-70
2023/10/28 04:45:55;;;;;;;;;;;;;;;8.89;100.00;99491.47;5012360;28;20417;-72
2023/10/28 04:48:21;;;;;;;;;;;;;;;8.85;100.00;99489.06;5009590;28;20382;-70
2023/10/28 04:50:47;;;;;;;;;;;;;;;8.84;100.00;99494.59;5015472;28;20268;-72
2023/10/28 04:53:12;;;;;;;;;;;;;;;8.93;100.00;99498.25;5011243;28;19921;-70
2023/10/28 04:55:38;;;;;;;;;;;;;;;8.83;100.00;99504.44;4996458;28;19925;-72
2023/10/28 04:58:05;;;;;;;;;;;;;;;8.91;100.00;99501.03;4994395;28;20262;-71
2023/10/28 05:00:30;;;;;;;;;;;;;;;8.91;100.00;99492.19;5011691;28;20130;-71
2023/10/28 05:02:55;;;;;;;;;;;;;;;8.84;100.00;99494.59;5012687;28;20007;-72
2023/10/28 05:05:21;;;;;;;;;;;;;;;8.84;100.00;99487.38;5007315;28;20028;-71
2023/10/28 05:07:46;;;;;;;;;;;;;;;8.75;100.00;99479.38;5012596;28;19927;-69
2023/10/28 05:10:11;;;;;;;;;;;;;;;8.85;100.00;99485.56;5014653;28;20422;-69
2023/10/28 05:12:39;;;;;;;;;;;;;;;8.84;100.00;99484.72;4996590;28;19967;-69
2023/10/28 05:15:06;;;;;;;;;;;;;;;8.87;100.00;99488.97;5009816;28;20326;-70
2023/10/28 05:17:31;;;;;;;;;;;;;;;8.90;100.00;99485.13;5009846;28;20298;-70
2023/10/28 05:19:56;;;;;;;;;;;;;;;8.89;100.00;99486.97;5011613;28;19932;-70
2023/10/28 05:22:22;;;;;;;;;;;;;;;8.90;100.00;99480.63;4995390;28;19936;-70
2023/10/28 05:24:47;;;;;;;;;;;;;;;8.83;100.00;99487.53;5018682;28;19921;-71
2023/10/28 05:27:12;;;;;;;;;;;;;;;8.85;100.00;99488.25;5019640;28;19921;-71
2023/10/28 05:29:38;;;;;;;;;;;;;;;8.94;100.00;99481.19;4999941;28;19921;-71
2023/10/28 05:32:03;;;;;;;;;;;;;;;8.90;100.00;99487.81;5011820;28;21585;-71
2023/10/28 05:34:28;;;;;;;;;;;;;;;8.85;100.00;99486.41;5014272;28;19995;-73
2023/10/28 05:36:53;;;;;;;;;;;;;;;8.93;100.00;99492.88;5011275;28;19921;-70
2023/10/28 05:39:20;;;;;;;;;;;;;;;8.98;100.00;99494.16;4992536;28;19952;-74
2023/10/28 05:41:46;;;;;;;;;;;;;;;8.93;100.00;99487.53;4995460;28;20420;-71
2023/10/28 05:44:11;;;;;;;;;;;;;;;8.94;100.00;99482.03;5026247;28;19925;-71
2023/10/28 05:46:36;;;;;;;;;;;;;;;8.93;100.00;99484.84;5012548;28;19939;-73
2023/10/28 05:49:02;;;;;;;;;;;;;;;9.00;100.00;99488.66;5005764;28;19967;-71
2023/10/28 05:51:28;;;;;;;;;;;;;;;9.00;100.00;99491.34;5011618;28;19975;-72
2023/10/28 05:53:53;;;;;;;;;;;;;;;8.97;100.00;99492.44;4996233;28;19921;-72
2023/10/28 05:56:18;;;;;;;;;;;;;;;8.95;100.00;99494.44;5011646;28;19926;-70
2023/10/28 05:58:43;;;;;;;;;;;;;;;8.90;100.00;99501.19;5010108;28;19925;-72
2023/10/28 06:01:09;;;;;;;;;;;;;;;8.92;100.00;99504.59;5010715;28;19921;-71
2023/10/28 06:03:34;;;;;;;;;;;;;;;9.00;100.00;99502.06;5009924;28;19925;-70
2023/10/28 06:06:00;;;;;;;;;;;;;;;9.01;100.00;99511.75;5012779;28;19963;-74
2023/10/28 06:08:25;;;;;;;;;;;;;;;9.03;100.00;99512.44;5026733;28;19921;-71
2023/10/28 06:10:50;;;;;;;;;;;;;;;9.04;100.00;99505.28;5007868;28;19925;-70
2023/10/28 06:13:15;;;;;;;;;;;;;;;9.06;100.00;99511.34;5007025;28;19960;-71
2023/10/28 06:15:41;;;;;;;;;;;;;;;9.05;100.00;99506.97;5023904;28;19967;-71
2023/10/28 06:18:07;;;;;;;;;;;;;;;8.97;100.00;99508.50;5008875;28;20321;-71
2023/10/28 06:20:33;;;;;;;;;;;;;;;9.08;100.00;99509.38;5012486;28;19933;-70
2023/10/28 06:22:58;;;;;;;;;;;;;;;9.05;100.00;99510.47;5003177;28;19925;-72
2023/10/28 06:25:24;;;;;;;;;;;;;;;9.11;100.00;99487.66;5008627;28;19921;-71
2023/10/28 06:27:49;;;;;;;;;;;;;;;9.10;100.00;99507.38;5027589;28;19921;-70
2023/10/28 06:30:14;;;;;;;;;;;;;;;9.10;100.00;99510.06;5005236;28;19965;-73
2023/10/28 06:32:40;;;;;;;;;;;;;;;9.04;100.00;99503.44;5010393;28;20327;-71
2023/10/28 06:35:05;;;;;;;;;;;;;;;9.09;100.00;99514.56;5014864;28;20375;-71
2023/10/28 06:37:30;;;;;;;;;;;;;;;9.09;100.00;99506.53;5020946;28;19976;-71
2023/10/28 06:39:56;;;;;;;;;;;;;;;9.07;100.00;99513.84;5015000;28;19931;-70
2023/10/28 06:42:23;;;;;;;;;;;;;;;9.05;100.00;99518.50;5011724;28;19921;-70
2023/10/28 06:44:48;;;;;;;;;;;;;;;9.10;100.00;99515.44;5012113;28;19928;-71
2023/10/28 06:47:13;;;;;;;;;;;;;;;9.13;100.00;99518.66;5014394;28;20316;-69
2023/10/28 06:49:38;;;;;;;;;;;;;;;9.12;100.00;99516.13;5014778;28;20232;-71
2023/10/28 06:52:04;;;;;;;;;;;;;;;9.20;100.00;99518.09;5011658;28;20728;-70
2023/10/28 06:54:29;;;;;;;;;;;;;;;9.20;100.00;99516.25;5014027;28;20411;-70
2023/10/28 06:56:54;;;;;;;;;;;;;;;9.34;100.00;99522.97;5003922;28;20011;-72
2023/10/28 06:59:19;;;;;;;;;;;;;;;9.23;100.00;99509.78;5012995;28;20516;-71
2023/10/28 07:01:45;;;;;;;;;;;;;;;9.19;100.00;99511.88;5014951;28;20018;-70
2023/10/28 07:04:13;;;;;;;;;;;;;;;9.18;100.00;99509.34;5010434;28;19929;-69
2023/10/28 07:06:39;;;;;;;;;;;;;;;9.17;100.00;99513.00;5013992;28;19937;-71
2023/10/28 07:09:04;;;;;;;;;;;;;;;9.15;100.00;99516.69;5010401;28;19944;-71
2023/10/28 07:11:29;;;;;;;;;;;;;;;9.17;100.00;99516.53;5011416;28;20423;-72
2023/10/28 07:13:55;;;;;;;;;;;;;;;9.32;100.00;99521.44;5013262;28;19925;-70
2023/10/28 07:16:20;;;;;;;;;;;;;;;9.28;100.00;99523.56;5009206;28;19929;-73
2023/10/28 07:18:45;;;;;;;;;;;;;;;9.26;100.00;99513.00;5010599;28;19921;-71
2023/10/28 07:21:10;;;;;;;;;;;;;;;9.10;100.00;99499.34;5009926;28;19926;-70
2023/10/28 07:23:36;;;;;;;;;;;;;;;9.25;100.00;99532.72;5025837;28;20988;-72
2023/10/28 07:26:02;;;;;;;;;;;;;;;9.20;100.00;99534.97;5009895;28;20378;-72
2023/10/28 07:28:33;;;;;;;;;;;;;;;9.23;100.00;99534.69;5014497;28;19921;-71
2023/10/28 07:30:59;;;;;;;;;;;;;;;9.25;100.00;99535.41;5011113;28;20264;-72
2023/10/28 07:33:24;;;;;;;;;;;;;;;9.34;100.00;99547.09;5013941;28;19929;-71
2023/10/28 07:35:52;;;;;;;;;;;;;;;9.32;100.00;99549.06;5015181;28;19932;-68
2023/10/28 07:38:18;;;;;;;;;;;;;;;9.37;100.00;99556.69;5012817;28;19921;-71
2023/10/28 07:40:44;;;;;;;;;;;;;;;9.41;100.00;99552.72;5012027;28;19944;-70
2023/10/28 07:43:12;;;;;;;;;;;;;;;9.41;100.00;99558.94;5029849;28;19921;-70
2023/10/28 07:45:38;;;;;;;;;;;;;;;9.43;100.00;99551.59;5013906;28;19927;-71
2023/10/28 07:48:06;;;;;;;;;;;;;;;9.48;100.00;99551.16;5012642;28;19921;-70
2023/10/28 07:50:31;;;;;;;;;;;;;;;9.57;100.00;99554.78;5012649;28;19917;-71
2023/10/28 07:52:56;;;;;;;;;;;;;;;9.65;100.00;99549.56;5014035;28;20723;-71
2023/10/28 07:55:22;;;;;;;;;;;;;;;9.68;100.00;99554.63;5017014;28;19951;-71
2023/10/28 07:57:47;;;;;;;;;;;;;;;9.73;100.00;99559.56;5011087;28;19928;-71
2023/10/28 08:00:13;;;;;;;;;;;;;;;9.71;100.00;99564.22;5010831;28;19945;-71
2023/10/28 08:02:42;;;;;;;;;;;;;;;9.70;100.00;99566.06;5013637;28;19920;-72
2023/10/28 08:05:07;;;;;;;;;;;;;;;9.81;100.00;99572.22;5014798;28;19921;-71
2023/10/28 08:07:33;;;;;;;;;;;;;;;9.90;100.00;99569.53;5010893;28;20128;-72
2023/10/28 08:09:58;;;;;;;;;;;;;;;9.94;100.00;99563.84;5015757;28;19921;-72
2023/10/28 08:12:25;;;;;;;;;;;;;;;9.99;100.00;99567.81;5010992;28;20362;-72
2023/10/28 08:14:50;;;;;;;;;;;;;;;10.12;100.00;99555.88;5026213;28;20054;-71
2023/10/28 08:17:16;;;;;;;;;;;;;;;10.16;100.00;99565.31;5013300;28;20020;-71
2023/10/28 08:19:41;;;;;;;;;;;;;;;10.15;100.00;99577.03;5012891;28;20203;-72
2023/10/28 08:22:06;;;;;;;;;;;;;;;10.23;100.00;99565.56;5013601;28;19924;-72
2023/10/28 08:24:32;;;;;;;;;;;;;;;10.25;100.00;99569.81;5011410;28;20392;-70
2023/10/28 08:26:57;;;;;;;;;;;;;;;10.24;100.00;99568.13;5014081;28;19921;-72
2023/10/28 08:29:23;;;;;;;;;;;;;;;10.30;100.00;99566.69;5012631;28;19917;-70
2023/10/28 08:31:49;;;;;;;;;;;;;;;10.33;100.00;99566.38;5013290;28;19968;-70
2023/10/28 08:34:15;;;;;;;;;;;;;;;10.36;100.00;99569.59;5010650;28;19921;-69
2023/10/28 08:36:41;;;;;;;;;;;;;;;10.43;100.00;99571.72;5010535;28;19931;-71
2023/10/28 08:39:07;;;;;;;;;;;;;;;10.46;100.00;99574.94;5006530;28;20362;-73
2023/10/28 08:41:32;;;;;;;;;;;;;;;10.49;100.00;99587.22;5006314;28;19917;-71
2023/10/28 08:43:58;;;;;;;;;;;;;;;10.54;100.00;99592.13;5011668;28;19925;-72
2023/10/28 08:46:24;;;;;;;;;;;;;;;10.57;100.00;99587.34;5010856;28;20287;-72
2023/10/28 08:48:49;;;;;;;;;;;;;;;10.67;100.00;99591.78;5008009;28;20429;-71
2023/10/28 08:51:15;;;;;;;;;;;;;;;10.69;100.00;99598.72;5004612;28;20012;-74
2023/10/28 08:53:40;;;;;;;;;;;;;;;10.75;100.00;99599.94;4999280;28;19929;-73
2023/10/28 08:56:06;;;;;;;;;;;;;;;10.77;100.00;99592.56;5020682;28;19929;-72
2023/10/28 08:58:31;;;;;;;;;;;;;;;10.85;100.00;99598.03;5013542;28;19928;-71
2023/10/28 09:00:58;;;;;;;;;;;;;;;10.86;100.00;99593.50;5013295;28;19921;-75
2023/10/28 09:03:24;;;;;;;;;;;;;;;10.88;100.00;99592.34;5030931;28;19921;-72
2023/10/28 09:05:51;;;;;;;;;;;;;;;10.98;100.00;99596.81;5008485;28;20288;-72
2023/10/28 09:08:16;;;;;;;;;;;;;;;11.00;100.00;99584.91;5006547;28;20008;-72
2023/10/28 09:10:42;;;;;;;;;;;;;;;11.12;100.00;99595.44;5011068;28;19921;-71
2023/10/28 09:13:07;;;;;;;;;;;;;;;11.11;100.00;99599.97;5010591;28;19921;-74
2023/10/28 09:15:34;;;;;;;;;;;;;;;11.13;100.00;99589.06;5008195;28;20249;-73
2023/10/28 09:18:01;;;;;;;;;;;;;;;11.11;100.00;99602.66;5006591;28;19967;-72
2023/10/28 09:20:26;;;;;;;;;;;;;;;11.14;100.00;99607.69;5006081;28;19936;-71
2023/10/28 09:22:52;;;;;;;;;;;;;;;11.16;100.00;99612.94;5006745;28;19921;-71
2023/10/28 09:25:17;;;;;;;;;;;;;;;11.25;100.00;99612.03;5008529;28;20375;-71
2023/10/28 09:27:43;;;;;;;;;;;;;;;11.30;100.00;99604.31;5003096;28;19925;-70
2023/10/28 09:30:10;;;;;;;;;;;;;;;11.24;100.00;99591.53;5004527;28;20506;-73
2023/10/28 09:32:37;;;;;;;;;;;;;;;11.35;100.00;99607.38;5012012;28;19921;-73
2023/10/28 09:35:06;;;;;;;;;;;;;;;11.46;100.00;99594.72;5009681;28;19932;-72
2023/10/28 09:37:33;;;;;;;;;;;;;;;11.60;100.00;99599.50;5012212;28;19921;-73
2023/10/28 09:39:58;;;;;;;;;;;;;;;11.69;100.00;99595.03;5005836;28;20134;-73
2023/10/28 09:42:23;;;;;;;;;;;;;;;11.76;100.00;99581.81;5008005;28;19963;-69
2023/10/28 09:44:49;;;;;;;;;;;;;;;11.79;100.00;99584.19;5005355;28;19928;-72
2023/10/28 09:47:16;;;;;;;;;;;;;;;11.78;100.00;99590.59;5007433;28;19949;-74
2023/10/28 09:49:42;;;;;;;;;;;;;;;11.88;100.00;99594.00;5008931;28;20489;-74
2023/10/28 09:52:07;;;;;;;;;;;;;;;12.02;100.00;99592.59;5008702;28;19928;-73
2023/10/28 09:54:34;;;;;;;;;;;;;;;12.08;100.00;99588.41;5012601;28;20334;-71
2023/10/28 09:57:00;;;;;;;;;;;;;;;12.09;100.00;99580.19;5016703;28;19921;-72
2023/10/28 09:59:25;;;;;;;;;;;;;;;12.02;100.00;99584.53;4993363;28;19951;-74
2023/10/28 10:02:01;;;;;;;;;;;;;;;12.13;100.00;99588.78;5013569;28;19967;-73
2023/10/28 10:04:36;;;;;;;;;;;;;;;12.12;100.00;99593.34;5026798;28;20367;-71
2023/10/28 10:07:01;;;;;;;;;;;;;;;12.20;100.00;99597.03;5009512;28;19921;-73
2023/10/28 10:09:26;;;;;;;;;;;;;;;12.24;100.00;99583.13;5009429;28;19928;-74
2023/10/28 10:11:52;;;;;;;;;;;;;;;12.14;100.00;99564.41;5007790;28;19924;-71
2023/10/28 10:14:21;;;;;;;;;;;;;;;12.32;100.00;99587.69;5023688;28;19949;-73
2023/10/28 10:16:52;;;;;;;;;;;;;;;12.26;100.00;99583.81;5009246;28;19925;-70
2023/10/28 10:19:22;;;;;;;;;;;;;;;12.18;100.00;99545.28;5008873;28;22686;-72
2023/10/28 10:21:49;;;;;;;;;;;;;;;12.46;100.00;99586.25;5009465;28;20367;-72
2023/10/28 10:24:18;;;;;;;;;;;;;;;13.00;100.00;99577.78;5016907;28;19925;-72
2023/10/28 10:26:43;;;;;;;;;;;;;;;13.76;100.00;99566.03;5011238;28;20494;-73
2023/10/28 10:29:08;;;;;;;;;;;;;;;14.30;100.00;99576.13;5011111;28;19921;-71
2023/10/28 10:31:36;;;;;;;;;;;;;;;14.19;100.00;99576.50;5011332;28;19924;-75
2023/10/28 10:34:08;;;;;;;;;;;;;;;13.32;100.00;99575.28;5011092;28;19920;-73
2023/10/28 10:36:38;;;;;;;;;;;;;;;13.02;100.00;99580.31;5013736;28;19925;-72
2023/10/28 10:39:16;;;;;;;;;;;;;;;13.25;100.00;99576.97;5019604;28;19928;-72
2023/10/28 10:42:05;;;;;;;;;;;;;;;13.18;100.00;99583.03;5013694;28;20320;-71
2023/10/28 10:44:34;;;;;;;;;;;;;;;13.08;100.00;99576.09;5013875;28;19925;-71
2023/10/28 10:47:00;;;;;;;;;;;;;;;13.10;100.00;99579.47;5010694;28;19968;-71
2023/10/28 10:49:25;;;;;;;;;;;;;;;13.38;100.00;99581.84;5026259;28;20027;-72
2023/10/28 10:51:50;;;;;;;;;;;;;;;13.48;100.00;99579.88;5026202;28;19932;-71
2023/10/28 10:54:16;;;;;;;;;;;;;;;13.91;100.00;99575.06;5027257;28;19921;-71
2023/10/28 10:56:41;;;;;;;;;;;;;;;14.33;100.00;99562.28;5012702;28;20020;-69
2023/10/28 10:59:06;;;;;;;;;;;;;;;13.87;100.00;99575.59;5015236;28;19928;-72
2023/10/28 11:01:31;;;;;;;;;;;;;;;13.62;100.00;99575.66;5015016;28;19932;-71
2023/10/28 11:03:57;;;;;;;;;;;;;;;14.25;100.00;99573.97;5015985;28;19921;-72
2023/10/28 11:06:23;;;;;;;;;;;;;;;13.91;100.00;99568.81;5014780;28;20380;-71
2023/10/28 11:08:48;;;;;;;;;;;;;;;13.79;100.00;99582.69;5014619;28;19958;-73
2023/10/28 11:11:14;;;;;;;;;;;;;;;13.92;100.00;99571.38;5011396;28;19921;-72
2023/10/28 11:13:39;;;;;;;;;;;;;;;13.79;100.00;99563.81;5009169;28;19925;-70
2023/10/28 11:16:04;;;;;;;;;;;;;;;13.53;100.00;99574.78;5014027;28;19929;-71
2023/10/28 11:18:30;;;;;;;;;;;;;;;13.44;100.00;99573.13;5012068;28;19987;-74
2023/10/28 11:20:55;;;;;;;;;;;;;;;13.34;100.00;99568.72;5017858;28;19947;-72
2023/10/28 11:23:20;;;;;;;;;;;;;;;13.27;100.00;99570.38;5016057;28;19933;-70
2023/10/28 11:25:47;;;;;;;;;;;;;;;13.34;100.00;99573.28;5019656;28;19971;-71
2023/10/28 11:28:12;;;;;;;;;;;;;;;13.46;100.00;99566.53;5019891;28;19921;-73
2023/10/28 11:30:37;;;;;;;;;;;;;;;13.79;100.00;99560.25;5009107;28;19936;-72
2023/10/28 11:33:07;;;;;;;;;;;;;;;13.94;100.00;99563.94;5014975;28;20259;-70
2023/10/28 11:35:33;;;;;;;;;;;;;;;13.97;100.00;99564.63;5012698;28;19929;-70
2023/10/28 11:38:00;;;;;;;;;;;;;;;14.20;100.00;99562.84;5017872;28;19925;-69
2023/10/28 11:40:26;;;;;;;;;;;;;;;14.35;100.00;99571.06;5019915;28;20382;-70
2023/10/28 11:42:51;;;;;;;;;;;;;;;14.35;100.00;99567.50;5020636;28;20012;-70
2023/10/28 11:45:17;;;;;;;;;;;;;;;14.34;100.00;99563.97;5016726;28;19964;-70
2023/10/28 11:47:43;;;;;;;;;;;;;;;14.11;100.00;99580.06;5020865;28;20327;-70
2023/10/28 11:50:08;;;;;;;;;;;;;;;14.31;100.00;99563.47;5011455;28;19968;-70
2023/10/28 11:52:33;;;;;;;;;;;;;;;14.36;100.00;99566.47;5017009;28;20294;-70
2023/10/28 11:55:04;;;;;;;;;;;;;;;14.37;100.00;99569.03;5016236;28;19936;-71
2023/10/28 11:57:30;;;;;;;;;;;;;;;14.37;100.00;99576.28;5011326;28;19936;-71
2023/10/28 11:59:55;;;;;;;;;;;;;;;14.51;100.00;99561.19;5016963;28;19921;-72
2023/10/28 12:02:20;;;;;;;;;;;;;;;14.72;100.00;99575.97;5015021;28;20123;-70
2023/10/28 12:04:45;;;;;;;;;;;;;;;14.61;100.00;99571.75;4996523;28;19956;-69
2023/10/28 12:07:11;;;;;;;;;;;;;;;14.48;100.00;99575.91;5007321;28;19918;-71
2023/10/28 12:09:37;;;;;;;;;;;;;;;14.73;100.00;99574.94;5016896;28;19972;-70
2023/10/28 12:12:03;;;;;;;;;;;;;;;14.51;100.00;99577.38;5014468;28;20332;-70
2023/10/28 12:14:28;;;;;;;;;;;;;;;13.95;100.00;99579.13;5013161;28;20287;-73
2023/10/28 12:16:53;;;;;;;;;;;;;;;13.71;100.00;99576.47;5013597;28;19960;-73
2023/10/28 12:19:19;;;;;;;;;;;;;;;14.16;100.00;99572.31;5011233;28;20015;-69
2023/10/28 12:21:44;;;;;;;;;;;;;;;14.57;100.00;99573.16;5010785;28;19931;-69
2023/10/28 12:24:11;;;;;;;;;;;;;;;14.83;100.00;99579.09;5014577;28;19921;-73
2023/10/28 12:26:37;;;;;;;;;;;;;;;14.27;100.00;99579.19;5004851;28;19936;-72
2023/10/28 12:29:03;;;;;;;;;;;;;;;13.88;100.00;99588.91;5010802;28;19921;-71
2023/10/28 12:31:28;;;;;;;;;;;;;;;13.45;100.00;99578.34;5012512;28;20314;-73
2023/10/28 12:33:54;;;;;;;;;;;;;;;13.43;100.00;99568.75;5012274;28;19909;-71
2023/10/28 12:36:20;;;;;;;;;;;;;;;13.33;100.00;99591.28;5012332;28;20398;-70